地図

経路データ

SID SEASON NUMBER BASIN SUBBASIN NAME ISO_TIME NATURE LAT LON WMO_WIND WMO_PRES WMO_AGENCY TRACK_TYPE DIST2LAND LANDFALL IFLAG USA_AGENCY USA_ATCF_ID USA_LAT USA_LON USA_RECORD USA_STATUS USA_WIND USA_PRES USA_SSHS USA_R34_NE USA_R34_SE USA_R34_SW USA_R34_NW USA_R50_NE USA_R50_SE USA_R50_SW USA_R50_NW USA_R64_NE USA_R64_SE USA_R64_SW USA_R64_NW USA_POCI USA_ROCI USA_RMW USA_EYE TOKYO_LAT TOKYO_LON TOKYO_GRADE TOKYO_WIND TOKYO_PRES TOKYO_R50_DIR TOKYO_R50_LONG TOKYO_R50_SHORT TOKYO_R30_DIR TOKYO_R30_LONG TOKYO_R30_SHORT TOKYO_LAND CMA_LAT CMA_LON CMA_CAT CMA_WIND CMA_PRES HKO_LAT HKO_LON HKO_CAT HKO_WIND HKO_PRES NEWDELHI_LAT NEWDELHI_LON NEWDELHI_GRADE NEWDELHI_WIND NEWDELHI_PRES NEWDELHI_CI NEWDELHI_DP NEWDELHI_POCI REUNION_LAT REUNION_LON REUNION_TYPE REUNION_WIND REUNION_PRES REUNION_TNUM REUNION_CI REUNION_RMW REUNION_R34_NE REUNION_R34_SE REUNION_R34_SW REUNION_R34_NW REUNION_R50_NE REUNION_R50_SE REUNION_R50_SW REUNION_R50_NW REUNION_R64_NE REUNION_R64_SE REUNION_R64_SW REUNION_R64_NW BOM_LAT BOM_LON BOM_TYPE BOM_WIND BOM_PRES BOM_TNUM BOM_CI BOM_RMW BOM_R34_NE BOM_R34_SE BOM_R34_SW BOM_R34_NW BOM_R50_NE BOM_R50_SE BOM_R50_SW BOM_R50_NW BOM_R64_NE BOM_R64_SE BOM_R64_SW BOM_R64_NW BOM_ROCI BOM_POCI BOM_EYE BOM_POS_METHOD BOM_PRES_METHOD NADI_LAT NADI_LON NADI_CAT NADI_WIND NADI_PRES WELLINGTON_LAT WELLINGTON_LON WELLINGTON_WIND WELLINGTON_PRES DS824_LAT DS824_LON DS824_STAGE DS824_WIND DS824_PRES TD9636_LAT TD9636_LON TD9636_STAGE TD9636_WIND TD9636_PRES TD9635_LAT TD9635_LON TD9635_WIND TD9635_PRES TD9635_ROCI NEUMANN_LAT NEUMANN_LON NEUMANN_CLASS NEUMANN_WIND NEUMANN_PRES MLC_LAT MLC_LON MLC_CLASS MLC_WIND MLC_PRES USA_GUST BOM_GUST BOM_GUST_PER REUNION_GUST REUNION_GUST_PER USA_SEAHGT USA_SEARAD_NE USA_SEARAD_SE USA_SEARAD_SW USA_SEARAD_NW STORM_SPEED STORM_DIR
1934233N21088 1934 44 NI BB NOT_NAMED 1934-08-21 00:00:00 TS 20.9000 88.0000 main 80 67 _________O____ -1 20.9000 88.0000 TC 30 5 317
1934233N21088 1934 44 NI BB NOT_NAMED 1934-08-21 03:00:00 TS 21.0684 87.8318 main 67 39 _________PO___ -1 21.1526 87.7477 TC 30 20.9000 88.0000 1 5 317
1934233N21088 1934 44 NI BB NOT_NAMED 1934-08-21 06:00:00 TS 21.2944 87.6057 main 39 11 _________OP___ -1 21.4000 87.5000 TC 30 21.1361 87.7643 1 6 317
1934233N21088 1934 44 NI BB NOT_NAMED 1934-08-21 09:00:00 TS 21.5289 87.3710 main 11 0 _________PP___ -1 21.6424 87.2573 TC 30 21.3776 87.5226 1 6 317
1934233N21088 1934 44 NI BB NOT_NAMED 1934-08-21 12:00:00 TS 21.7652 87.1348 main 0 0 _________OP___ -1 21.9000 87.0000 TC 30 21.6304 87.2697 1 7 317
1934233N21088 1934 44 NI BB NOT_NAMED 1934-08-21 15:00:00 TS 22.0500 86.8538 main 0 0 _________PO___ -1 22.2000 86.7075 TC 30 21.9000 87.0000 1 8 317
1934233N21088 1934 44 NI BB NOT_NAMED 1934-08-21 18:00:00 TS 22.3441 86.5553 main 0 0 _________OP___ -1 22.5000 86.4000 TC 30 22.1881 86.7105 1 8 316
1934233N21088 1934 44 NI BB NOT_NAMED 1934-08-21 21:00:00 TS 22.6225 86.2501 main 0 0 _________PP___ -1 22.7650 86.0924 TC 30 22.4800 86.4079 1 8 314
1934233N21088 1934 44 NI BB NOT_NAMED 1934-08-22 00:00:00 TS 22.8784 85.9506 main 0 0 _________OP___ -1 23.0000 85.8000 TC 30 22.7569 86.1012 1 7 313
1934233N21088 1934 44 NI BB NOT_NAMED 1934-08-22 03:00:00 TS 23.1112 85.6750 main 0 0 _________PO___ -1 23.2224 85.5499 TC 30 23.0000 85.8000 1 6 310
1934233N21088 1934 44 NI BB NOT_NAMED 1934-08-22 06:00:00 TS 23.2969 85.4127 main 0 0 _________OP___ -1 23.4000 85.3000 TC 30 23.1937 85.5254 1 6 303
1934233N21088 1934 44 NI BB NOT_NAMED 1934-08-22 09:00:00 TS 23.4335 85.1321 main 0 0 _________PP___ -1 23.5150 85.0074 TC 30 23.3520 85.2568 1 6 295
1934233N21088 1934 44 NI BB NOT_NAMED 1934-08-22 12:00:00 TS 23.5422 84.8424 main 0 0 _________OP___ -1 23.6000 84.7000 TC 30 23.4843 84.9849 1 6 292
1934233N21088 1934 44 NI BB NOT_NAMED 1934-08-22 15:00:00 TS 23.6499 84.5537 main 0 0 _________PO___ -1 23.6999 84.4074 TC 30 23.6000 84.7000 1 6 292
1934233N21088 1934 44 NI BB NOT_NAMED 1934-08-22 18:00:00 TS 23.7550 84.2546 main 0 0 _________OP___ -1 23.8000 84.1000 TC 30 23.7099 84.4092 1 6 290
1934233N21088 1934 44 NI BB NOT_NAMED 1934-08-22 21:00:00 TS 23.8534 83.9371 main 0 0 _________PP___ -1 23.8999 83.7724 TC 30 23.8069 84.1018 1 6 288
1934233N21088 1934 44 NI BB NOT_NAMED 1934-08-23 00:00:00 TS 23.9502 83.5843 main 0 0 _________OP___ -1 24.0000 83.4000 TC 30 23.9004 83.7685 1 7 286
1934233N21088 1934 44 NI BB NOT_NAMED 1934-08-23 03:00:00 TS 24.0462 83.1824 main 0 0 _________PO___ -1 24.0925 82.9649 TC 30 24.0000 83.4000 1 8 285
1934233N21088 1934 44 NI BB NOT_NAMED 1934-08-23 06:00:00 TS 24.1571 82.7328 main 0 0 _________OP___ -1 24.2000 82.5000 TC 30 24.1142 82.9657 1 9 286
1934233N21088 1934 44 NI BB NOT_NAMED 1934-08-23 09:00:00 TS 24.2891 82.2676 main 0 0 _________PP___ -1 24.3425 82.0350 TC 30 24.2357 82.5001 1 9 288
1934233N21088 1934 44 NI BB NOT_NAMED 1934-08-23 12:00:00 TS 24.4321 81.8172 main 0 0 _________OP___ -1 24.5000 81.6000 TC 30 24.3642 82.0344 1 8 290
1934233N21088 1934 44 NI BB NOT_NAMED 1934-08-23 15:00:00 TS 24.5749 81.4137 main 0 0 _________PO___ -1 24.6499 81.2274 TC 30 24.5000 81.6000 1 7 293
1934233N21088 1934 44 NI BB NOT_NAMED 1934-08-23 18:00:00 TS 24.7170 81.0693 main 0 0 _________OP___ -1 24.8000 80.9000 TC 30 24.6340 81.2386 1 7 295
1934233N21088 1934 44 NI BB NOT_NAMED 1934-08-23 21:00:00 TS 24.8595 80.7558 main 0 0 _________PP___ -1 24.9423 80.5998 TC 30 24.7767 80.9119 1 6 298
1934233N21088 1934 44 NI BB NOT_NAMED 1934-08-24 00:00:00 TS 25.0155 80.4521 main 0 0 _________OP___ -1 25.1000 80.3000 TC 30 24.9310 80.6042 1 7 301
1934233N21088 1934 44 NI BB NOT_NAMED 1934-08-24 03:00:00 TS 25.1963 80.1250 main 0 0 _________PO___ -1 25.2925 79.9500 TC 30 25.1000 80.3000 1 7 302
1934233N21088 1934 44 NI BB NOT_NAMED 1934-08-24 06:00:00 TS 25.3968 79.7875 main 0 0 _________OP___ -1 25.5000 79.6000 TC 30 25.2935 79.9750 1 7 304
1934233N21088 1934 44 NI BB NOT_NAMED 1934-08-24 09:00:00 TS 25.5998 79.4712 main 0 0 _________PP___ -1 25.6999 79.2924 TC 30 25.4997 79.6501 1 7 306
1934233N21088 1934 44 NI BB NOT_NAMED 1934-08-24 12:00:00 TS 25.8030 79.1625 main 0 0 _________OP___ -1 25.9000 79.0000 TC 30 25.7060 79.3250 1 7 306
1934233N21088 1934 44 NI BB NOT_NAMED 1934-08-24 15:00:00 TS 26.0074 78.8537 main 0 0 _________PO___ -1 26.1149 78.7075 TC 30 25.9000 79.0000 1 7 305
1934233N21088 1934 44 NI BB NOT_NAMED 1934-08-24 18:00:00 TS 26.1943 78.5375 main 0 0 _________OP___ -1 26.3000 78.4000 TC 30 26.0885 78.6750 1 7 300
1934233N21088 1934 44 NI BB NOT_NAMED 1934-08-24 21:00:00 TS 26.3449 78.2001 main 0 0 _________PP___ -1 26.4300 78.0500 TC 30 26.2597 78.3502 1 7 293
1934233N21088 1934 44 NI AS NOT_NAMED 1934-08-25 00:00:00 TS 26.4505 77.8626 main 0 0 _________OP___ -1 26.5000 77.7000 TC 30 26.4010 78.0252 1 6 286
1934233N21088 1934 44 NI AS NOT_NAMED 1934-08-25 03:00:00 TS 26.5074 77.5499 main 0 0 _________PO___ -1 26.5148 77.3999 TC 30 26.5000 77.7000 1 6 278
1934233N21088 1934 44 NI AS NOT_NAMED 1934-08-25 06:00:00 TS 26.5233 77.2454 main 0 0 _________OP___ -1 26.5000 77.1000 TC 30 26.5467 77.3907 1 6 272
1934233N21088 1934 44 NI AS NOT_NAMED 1934-08-25 09:00:00 TS 26.5258 76.9259 main 0 0 _________PP___ -1 26.4998 76.7725 TC 30 26.5517 77.0794 1 6 269
1934233N21088 1934 44 NI AS NOT_NAMED 1934-08-25 12:00:00 TS 26.5155 76.5767 main 0 0 _________OP___ -1 26.5000 76.4000 TC 30 26.5310 76.7534 1 7 268
1934233N21088 1934 44 NI AS NOT_NAMED 1934-08-25 15:00:00 TS 26.5038 76.1788 main 0 0 _________PO___ -1 26.5076 75.9576 TC 30 26.5000 76.4000 1 7 267
1934233N21088 1934 44 NI AS NOT_NAMED 1934-08-25 18:00:00 TS 26.4837 75.7915 main 0 0 _________OP___ -1 26.5000 75.5000 TC 30 26.4715 76.0102 1 7 266
1934233N21088 1934 44 NI AS NOT_NAMED 1934-08-25 21:00:00 TS 26.4519 75.3880 main 0 0 _________PP___ -1 26.4601 75.0849 TC 30 26.4465 75.5901 1 7 265
1934233N21088 1934 44 NI AS NOT_NAMED 1934-08-26 00:00:00 TS 26.4154 75.0000 main 0 0 _________OP___ -1 26.4000 74.7000 TC 30 26.4232 75.1500 1 6 265
1934233N21088 1934 44 NI AS NOT_NAMED 1934-08-26 03:00:00 NR 26.4000 74.7000 main 0 __________O___ -1 TC 26.4000 74.7000 1 5 267

IBTrACS Databaseについて

本データベースは、米国NOAAが公開する1842年以降の世界の熱帯低気圧のベストトラックデータアーカイブInternational Best Track Archive for Climate Stewardship (IBTrACS)を、ウェブで閲覧しやすい形式に変換したものです。

最終更新日:2021-10-21